sensor_id;sensor_type;location;lat;lon;timestamp;temperature;humidity
35531;DHT22;21637;53.352;-6.356;2023-03-14T00:00:13;4.30;99.90
35531;DHT22;21637;53.352;-6.356;2023-03-14T00:02:40;4.30;99.90
35531;DHT22;21637;53.352;-6.356;2023-03-14T00:05:06;4.20;99.90
35531;DHT22;21637;53.352;-6.356;2023-03-14T00:07:37;4.20;99.90
35531;DHT22;21637;53.352;-6.356;2023-03-14T00:10:11;4.20;99.90
35531;DHT22;21637;53.352;-6.356;2023-03-14T00:12:37;4.20;99.90
35531;DHT22;21637;53.352;-6.356;2023-03-14T00:15:04;4.10;99.90
35531;DHT22;21637;53.352;-6.356;2023-03-14T00:17:32;4.10;99.90
35531;DHT22;21637;53.352;-6.356;2023-03-14T00:19:58;4.10;99.90
35531;DHT22;21637;53.352;-6.356;2023-03-14T00:22:34;4.00;99.90
35531;DHT22;21637;53.352;-6.356;2023-03-14T00:25:00;4.00;99.90
35531;DHT22;21637;53.352;-6.356;2023-03-14T00:27:26;3.90;99.90
35531;DHT22;21637;53.352;-6.356;2023-03-14T00:29:52;3.90;99.90
35531;DHT22;21637;53.352;-6.356;2023-03-14T00:32:17;3.90;99.90
35531;DHT22;21637;53.352;-6.356;2023-03-14T00:34:43;3.90;99.90
35531;DHT22;21637;53.352;-6.356;2023-03-14T00:37:09;3.90;99.90
35531;DHT22;21637;53.352;-6.356;2023-03-14T00:39:34;3.90;99.90
35531;DHT22;21637;53.352;-6.356;2023-03-14T00:42:00;3.80;99.90
35531;DHT22;21637;53.352;-6.356;2023-03-14T00:44:26;3.90;99.90
35531;DHT22;21637;53.352;-6.356;2023-03-14T00:46:51;3.90;99.90
35531;DHT22;21637;53.352;-6.356;2023-03-14T00:49:17;3.90;99.90
35531;DHT22;21637;53.352;-6.356;2023-03-14T00:51:43;3.90;99.90
35531;DHT22;21637;53.352;-6.356;2023-03-14T00:54:09;3.90;99.90
35531;DHT22;21637;53.352;-6.356;2023-03-14T00:56:35;3.90;99.90
35531;DHT22;21637;53.352;-6.356;2023-03-14T00:59:00;3.90;99.90
35531;DHT22;21637;53.352;-6.356;2023-03-14T01:01:26;4.00;99.90
35531;DHT22;21637;53.352;-6.356;2023-03-14T01:03:54;3.90;99.90
35531;DHT22;21637;53.352;-6.356;2023-03-14T01:06:23;4.00;99.90
35531;DHT22;21637;53.352;-6.356;2023-03-14T01:08:50;4.00;99.90
35531;DHT22;21637;53.352;-6.356;2023-03-14T01:11:19;4.00;99.90
35531;DHT22;21637;53.352;-6.356;2023-03-14T01:13:45;4.00;99.90
35531;DHT22;21637;53.352;-6.356;2023-03-14T01:16:15;4.10;99.90
35531;DHT22;21637;53.352;-6.356;2023-03-14T01:18:43;4.10;99.90
35531;DHT22;21637;53.352;-6.356;2023-03-14T01:21:21;4.20;99.90
35531;DHT22;21637;53.352;-6.356;2023-03-14T01:23:48;4.20;99.90
35531;DHT22;21637;53.352;-6.356;2023-03-14T01:26:17;4.20;99.90
35531;DHT22;21637;53.352;-6.356;2023-03-14T01:28:47;4.20;99.90
35531;DHT22;21637;53.352;-6.356;2023-03-14T01:31:13;4.20;99.90
35531;DHT22;21637;53.352;-6.356;2023-03-14T01:33:40;4.30;99.90
35531;DHT22;21637;53.352;-6.356;2023-03-14T01:36:06;4.30;99.90
35531;DHT22;21637;53.352;-6.356;2023-03-14T01:38:33;4.30;99.90
35531;DHT22;21637;53.352;-6.356;2023-03-14T01:40:59;4.40;99.90
35531;DHT22;21637;53.352;-6.356;2023-03-14T01:43:25;4.40;99.90
35531;DHT22;21637;53.352;-6.356;2023-03-14T01:56:59;4.40;99.90
35531;DHT22;21637;53.352;-6.356;2023-03-14T01:59:29;4.30;99.90
35531;DHT22;21637;53.352;-6.356;2023-03-14T02:01:55;4.20;99.90
35531;DHT22;21637;53.352;-6.356;2023-03-14T02:04:21;4.20;99.90
35531;DHT22;21637;53.352;-6.356;2023-03-14T02:07:00;4.10;99.90
35531;DHT22;21637;53.352;-6.356;2023-03-14T02:09:28;4.00;99.90
35531;DHT22;21637;53.352;-6.356;2023-03-14T02:11:55;4.00;99.90
35531;DHT22;21637;53.352;-6.356;2023-03-14T02:14:47;3.80;99.90
35531;DHT22;21637;53.352;-6.356;2023-03-14T02:17:16;3.70;99.90
35531;DHT22;21637;53.352;-6.356;2023-03-14T02:22:20;3.50;99.90
35531;DHT22;21637;53.352;-6.356;2023-03-14T02:27:31;3.40;99.90
35531;DHT22;21637;53.352;-6.356;2023-03-14T02:30:09;3.30;99.90
35531;DHT22;21637;53.352;-6.356;2023-03-14T02:32:37;3.20;99.90
35531;DHT22;21637;53.352;-6.356;2023-03-14T02:35:08;3.30;99.90
35531;DHT22;21637;53.352;-6.356;2023-03-14T02:37:47;3.30;99.90
35531;DHT22;21637;53.352;-6.356;2023-03-14T02:40:14;3.20;99.90
35531;DHT22;21637;53.352;-6.356;2023-03-14T02:42:40;3.20;99.90
35531;DHT22;21637;53.352;-6.356;2023-03-14T02:47:39;3.20;99.90
35531;DHT22;21637;53.352;-6.356;2023-03-14T02:50:10;3.20;99.90
35531;DHT22;21637;53.352;-6.356;2023-03-14T02:52:37;3.20;99.90
35531;DHT22;21637;53.352;-6.356;2023-03-14T02:55:04;3.30;99.90
35531;DHT22;21637;53.352;-6.356;2023-03-14T02:57:30;3.30;99.90
35531;DHT22;21637;53.352;-6.356;2023-03-14T03:00:00;3.40;99.90
35531;DHT22;21637;53.352;-6.356;2023-03-14T03:02:29;3.40;99.90
35531;DHT22;21637;53.352;-6.356;2023-03-14T03:04:55;3.40;99.90
35531;DHT22;21637;53.352;-6.356;2023-03-14T03:07:20;3.50;99.90
35531;DHT22;21637;53.352;-6.356;2023-03-14T03:09:46;3.50;99.90
35531;DHT22;21637;53.352;-6.356;2023-03-14T03:12:12;3.50;99.90
35531;DHT22;21637;53.352;-6.356;2023-03-14T03:14:37;3.50;99.90
35531;DHT22;21637;53.352;-6.356;2023-03-14T03:17:06;3.50;99.90
35531;DHT22;21637;53.352;-6.356;2023-03-14T03:19:33;3.50;99.90
35531;DHT22;21637;53.352;-6.356;2023-03-14T03:21:59;3.50;99.90
35531;DHT22;21637;53.352;-6.356;2023-03-14T03:24:25;3.50;99.90
35531;DHT22;21637;53.352;-6.356;2023-03-14T03:26:51;3.50;99.90
35531;DHT22;21637;53.352;-6.356;2023-03-14T03:29:17;3.50;99.90
35531;DHT22;21637;53.352;-6.356;2023-03-14T03:31:44;3.50;99.90
35531;DHT22;21637;53.352;-6.356;2023-03-14T03:34:11;3.40;99.90
35531;DHT22;21637;53.352;-6.356;2023-03-14T03:36:37;3.40;99.90
35531;DHT22;21637;53.352;-6.356;2023-03-14T03:39:03;3.50;99.90
35531;DHT22;21637;53.352;-6.356;2023-03-14T03:41:29;3.50;99.90
35531;DHT22;21637;53.352;-6.356;2023-03-14T03:43:55;3.40;99.90
35531;DHT22;21637;53.352;-6.356;2023-03-14T03:46:21;3.40;99.90
35531;DHT22;21637;53.352;-6.356;2023-03-14T03:48:47;3.40;99.90
35531;DHT22;21637;53.352;-6.356;2023-03-14T03:51:14;3.40;99.90
35531;DHT22;21637;53.352;-6.356;2023-03-14T03:53:41;3.40;99.90
35531;DHT22;21637;53.352;-6.356;2023-03-14T03:56:07;3.50;99.90
35531;DHT22;21637;53.352;-6.356;2023-03-14T03:58:33;3.40;99.90
35531;DHT22;21637;53.352;-6.356;2023-03-14T04:00:59;3.40;99.90
35531;DHT22;21637;53.352;-6.356;2023-03-14T04:03:25;3.40;99.90
35531;DHT22;21637;53.352;-6.356;2023-03-14T04:06:17;3.30;99.90
35531;DHT22;21637;53.352;-6.356;2023-03-14T04:08:43;3.30;99.90
35531;DHT22;21637;53.352;-6.356;2023-03-14T04:11:10;3.30;99.90
35531;DHT22;21637;53.352;-6.356;2023-03-14T04:13:35;3.30;99.90
35531;DHT22;21637;53.352;-6.356;2023-03-14T04:16:01;3.30;99.90
35531;DHT22;21637;53.352;-6.356;2023-03-14T04:18:27;3.30;99.90
35531;DHT22;21637;53.352;-6.356;2023-03-14T04:20:55;3.30;99.90
35531;DHT22;21637;53.352;-6.356;2023-03-14T04:23:22;3.20;99.90
35531;DHT22;21637;53.352;-6.356;2023-03-14T04:25:52;3.20;99.90
35531;DHT22;21637;53.352;-6.356;2023-03-14T04:28:18;3.20;99.90
35531;DHT22;21637;53.352;-6.356;2023-03-14T04:30:44;3.20;99.90
35531;DHT22;21637;53.352;-6.356;2023-03-14T04:33:09;3.10;99.90
35531;DHT22;21637;53.352;-6.356;2023-03-14T04:35:36;3.10;99.90
35531;DHT22;21637;53.352;-6.356;2023-03-14T04:38:02;3.00;99.90
35531;DHT22;21637;53.352;-6.356;2023-03-14T04:40:28;2.90;99.90
35531;DHT22;21637;53.352;-6.356;2023-03-14T04:42:53;2.90;99.90
35531;DHT22;21637;53.352;-6.356;2023-03-14T04:45:19;3.00;99.90
35531;DHT22;21637;53.352;-6.356;2023-03-14T04:47:45;2.90;99.90
35531;DHT22;21637;53.352;-6.356;2023-03-14T04:50:11;2.90;99.90
35531;DHT22;21637;53.352;-6.356;2023-03-14T04:52:36;2.90;99.90
35531;DHT22;21637;53.352;-6.356;2023-03-14T04:55:02;2.90;99.90
35531;DHT22;21637;53.352;-6.356;2023-03-14T04:57:28;2.80;99.90
35531;DHT22;21637;53.352;-6.356;2023-03-14T04:59:54;2.80;99.90
35531;DHT22;21637;53.352;-6.356;2023-03-14T05:02:19;2.80;99.90
35531;DHT22;21637;53.352;-6.356;2023-03-14T05:04:45;2.80;99.90
35531;DHT22;21637;53.352;-6.356;2023-03-14T05:07:11;2.80;99.90
35531;DHT22;21637;53.352;-6.356;2023-03-14T05:09:36;2.90;99.90
35531;DHT22;21637;53.352;-6.356;2023-03-14T05:12:02;2.70;99.90
35531;DHT22;21637;53.352;-6.356;2023-03-14T05:14:28;2.80;99.90
35531;DHT22;21637;53.352;-6.356;2023-03-14T05:16:54;2.80;99.90
35531;DHT22;21637;53.352;-6.356;2023-03-14T05:19:19;2.70;99.90
35531;DHT22;21637;53.352;-6.356;2023-03-14T05:21:45;2.70;99.90
35531;DHT22;21637;53.352;-6.356;2023-03-14T05:24:11;2.60;99.90
35531;DHT22;21637;53.352;-6.356;2023-03-14T05:26:36;2.50;99.90
35531;DHT22;21637;53.352;-6.356;2023-03-14T05:29:02;2.50;99.90
35531;DHT22;21637;53.352;-6.356;2023-03-14T05:31:28;2.50;99.90
35531;DHT22;21637;53.352;-6.356;2023-03-14T05:33:53;2.50;99.90
35531;DHT22;21637;53.352;-6.356;2023-03-14T05:36:19;2.40;99.90
35531;DHT22;21637;53.352;-6.356;2023-03-14T05:38:45;2.40;99.90
35531;DHT22;21637;53.352;-6.356;2023-03-14T05:41:10;2.30;99.90
35531;DHT22;21637;53.352;-6.356;2023-03-14T05:43:36;2.30;99.90
35531;DHT22;21637;53.352;-6.356;2023-03-14T05:46:02;2.30;99.90
35531;DHT22;21637;53.352;-6.356;2023-03-14T05:48:28;2.30;99.90
35531;DHT22;21637;53.352;-6.356;2023-03-14T05:50:57;2.30;99.90
35531;DHT22;21637;53.352;-6.356;2023-03-14T05:53:25;2.30;99.90
35531;DHT22;21637;53.352;-6.356;2023-03-14T05:55:55;2.20;99.90
35531;DHT22;21637;53.352;-6.356;2023-03-14T05:58:21;2.20;99.90
35531;DHT22;21637;53.352;-6.356;2023-03-14T06:00:47;2.10;99.90
35531;DHT22;21637;53.352;-6.356;2023-03-14T06:03:13;2.10;99.90
35531;DHT22;21637;53.352;-6.356;2023-03-14T06:05:38;2.10;99.90
35531;DHT22;21637;53.352;-6.356;2023-03-14T06:08:04;2.00;99.90
35531;DHT22;21637;53.352;-6.356;2023-03-14T06:10:30;2.00;99.90
35531;DHT22;21637;53.352;-6.356;2023-03-14T06:12:56;1.90;99.90
35531;DHT22;21637;53.352;-6.356;2023-03-14T06:15:21;1.90;99.90
35531;DHT22;21637;53.352;-6.356;2023-03-14T06:17:47;2.00;99.90
35531;DHT22;21637;53.352;-6.356;2023-03-14T06:20:13;2.00;99.90
35531;DHT22;21637;53.352;-6.356;2023-03-14T06:22:39;2.00;99.90
35531;DHT22;21637;53.352;-6.356;2023-03-14T06:25:06;1.90;99.90
35531;DHT22;21637;53.352;-6.356;2023-03-14T06:27:32;1.90;99.90
35531;DHT22;21637;53.352;-6.356;2023-03-14T06:29:58;1.80;99.90
35531;DHT22;21637;53.352;-6.356;2023-03-14T06:32:24;1.90;99.90
35531;DHT22;21637;53.352;-6.356;2023-03-14T06:34:50;1.90;99.90
35531;DHT22;21637;53.352;-6.356;2023-03-14T06:37:16;1.80;99.90
35531;DHT22;21637;53.352;-6.356;2023-03-14T06:39:42;1.80;99.90
35531;DHT22;21637;53.352;-6.356;2023-03-14T06:42:09;1.80;99.90
35531;DHT22;21637;53.352;-6.356;2023-03-14T06:44:35;1.80;99.90
35531;DHT22;21637;53.352;-6.356;2023-03-14T06:47:01;1.90;99.90
35531;DHT22;21637;53.352;-6.356;2023-03-14T06:49:27;1.90;99.90
35531;DHT22;21637;53.352;-6.356;2023-03-14T06:51:52;1.90;99.90
35531;DHT22;21637;53.352;-6.356;2023-03-14T06:54:18;1.80;99.90
35531;DHT22;21637;53.352;-6.356;2023-03-14T06:56:44;1.90;99.90
35531;DHT22;21637;53.352;-6.356;2023-03-14T06:59:09;1.90;99.90
35531;DHT22;21637;53.352;-6.356;2023-03-14T07:01:35;1.90;99.90
35531;DHT22;21637;53.352;-6.356;2023-03-14T07:04:01;1.90;99.90
35531;DHT22;21637;53.352;-6.356;2023-03-14T07:06:27;2.00;99.90
35531;DHT22;21637;53.352;-6.356;2023-03-14T07:08:56;2.10;99.90
35531;DHT22;21637;53.352;-6.356;2023-03-14T07:11:22;2.10;99.90
35531;DHT22;21637;53.352;-6.356;2023-03-14T07:13:47;2.10;99.90
35531;DHT22;21637;53.352;-6.356;2023-03-14T07:16:13;2.20;99.90
35531;DHT22;21637;53.352;-6.356;2023-03-14T07:18:39;2.30;99.90
35531;DHT22;21637;53.352;-6.356;2023-03-14T07:21:06;2.40;99.90
35531;DHT22;21637;53.352;-6.356;2023-03-14T07:23:32;2.40;99.90
35531;DHT22;21637;53.352;-6.356;2023-03-14T07:25:58;2.50;99.90
35531;DHT22;21637;53.352;-6.356;2023-03-14T07:28:24;2.70;99.90
35531;DHT22;21637;53.352;-6.356;2023-03-14T07:30:50;2.70;99.90
35531;DHT22;21637;53.352;-6.356;2023-03-14T07:33:16;2.70;99.90
35531;DHT22;21637;53.352;-6.356;2023-03-14T07:35:41;2.80;99.90
35531;DHT22;21637;53.352;-6.356;2023-03-14T07:38:07;2.90;99.90
35531;DHT22;21637;53.352;-6.356;2023-03-14T07:40:33;3.00;99.90
35531;DHT22;21637;53.352;-6.356;2023-03-14T07:42:58;3.10;99.90
35531;DHT22;21637;53.352;-6.356;2023-03-14T07:45:24;3.20;99.90
35531;DHT22;21637;53.352;-6.356;2023-03-14T07:47:50;3.20;99.90
35531;DHT22;21637;53.352;-6.356;2023-03-14T07:50:16;3.20;99.90
35531;DHT22;21637;53.352;-6.356;2023-03-14T07:52:41;3.20;99.90
35531;DHT22;21637;53.352;-6.356;2023-03-14T07:55:07;3.40;99.90
35531;DHT22;21637;53.352;-6.356;2023-03-14T07:57:33;3.50;99.90
35531;DHT22;21637;53.352;-6.356;2023-03-14T07:59:59;3.70;99.90
35531;DHT22;21637;53.352;-6.356;2023-03-14T08:02:25;3.70;99.90
35531;DHT22;21637;53.352;-6.356;2023-03-14T08:04:50;3.70;99.90
35531;DHT22;21637;53.352;-6.356;2023-03-14T08:07:16;3.80;99.90
35531;DHT22;21637;53.352;-6.356;2023-03-14T08:09:42;3.80;99.90
35531;DHT22;21637;53.352;-6.356;2023-03-14T08:12:08;3.80;99.90
35531;DHT22;21637;53.352;-6.356;2023-03-14T08:14:34;3.80;99.90
35531;DHT22;21637;53.352;-6.356;2023-03-14T08:16:59;3.80;99.90
35531;DHT22;21637;53.352;-6.356;2023-03-14T08:19:25;3.80;99.90
35531;DHT22;21637;53.352;-6.356;2023-03-14T08:21:51;3.80;99.90
35531;DHT22;21637;53.352;-6.356;2023-03-14T08:24:17;3.90;99.90
35531;DHT22;21637;53.352;-6.356;2023-03-14T08:26:43;3.80;99.90
35531;DHT22;21637;53.352;-6.356;2023-03-14T08:29:08;3.80;99.90
35531;DHT22;21637;53.352;-6.356;2023-03-14T08:31:35;3.80;99.90
35531;DHT22;21637;53.352;-6.356;2023-03-14T08:34:02;3.90;99.90
35531;DHT22;21637;53.352;-6.356;2023-03-14T08:36:28;3.80;99.90
35531;DHT22;21637;53.352;-6.356;2023-03-14T08:38:53;3.60;99.90
35531;DHT22;21637;53.352;-6.356;2023-03-14T08:41:19;3.60;99.90
35531;DHT22;21637;53.352;-6.356;2023-03-14T08:43:45;3.70;99.90
35531;DHT22;21637;53.352;-6.356;2023-03-14T08:46:11;3.80;99.90
35531;DHT22;21637;53.352;-6.356;2023-03-14T08:48:37;3.90;99.90
35531;DHT22;21637;53.352;-6.356;2023-03-14T08:51:07;4.10;99.90
35531;DHT22;21637;53.352;-6.356;2023-03-14T08:53:34;4.10;99.90
35531;DHT22;21637;53.352;-6.356;2023-03-14T08:56:00;4.20;99.90
35531;DHT22;21637;53.352;-6.356;2023-03-14T08:58:25;4.30;99.90
35531;DHT22;21637;53.352;-6.356;2023-03-14T09:00:51;4.40;99.90
35531;DHT22;21637;53.352;-6.356;2023-03-14T09:03:17;4.50;99.90
35531;DHT22;21637;53.352;-6.356;2023-03-14T09:05:42;4.50;99.90
35531;DHT22;21637;53.352;-6.356;2023-03-14T09:08:08;4.60;99.90
35531;DHT22;21637;53.352;-6.356;2023-03-14T09:10:34;4.70;99.90
35531;DHT22;21637;53.352;-6.356;2023-03-14T09:12:59;4.80;99.90
35531;DHT22;21637;53.352;-6.356;2023-03-14T09:15:25;4.90;99.90
35531;DHT22;21637;53.352;-6.356;2023-03-14T09:17:51;4.90;99.90
35531;DHT22;21637;53.352;-6.356;2023-03-14T09:20:17;5.10;99.90
35531;DHT22;21637;53.352;-6.356;2023-03-14T09:22:43;5.20;99.90
35531;DHT22;21637;53.352;-6.356;2023-03-14T09:25:09;5.20;99.90
35531;DHT22;21637;53.352;-6.356;2023-03-14T09:27:35;5.20;99.90
35531;DHT22;21637;53.352;-6.356;2023-03-14T09:30:00;5.20;99.90
35531;DHT22;21637;53.352;-6.356;2023-03-14T09:32:26;5.30;99.90
35531;DHT22;21637;53.352;-6.356;2023-03-14T09:34:52;5.30;99.90
35531;DHT22;21637;53.352;-6.356;2023-03-14T09:37:17;5.50;99.90
35531;DHT22;21637;53.352;-6.356;2023-03-14T09:39:45;5.50;99.90
35531;DHT22;21637;53.352;-6.356;2023-03-14T09:42:15;5.50;99.90
35531;DHT22;21637;53.352;-6.356;2023-03-14T09:44:56;5.60;99.90
35531;DHT22;21637;53.352;-6.356;2023-03-14T09:47:23;5.60;99.90
35531;DHT22;21637;53.352;-6.356;2023-03-14T09:49:49;5.60;99.90
35531;DHT22;21637;53.352;-6.356;2023-03-14T09:52:37;5.60;99.90
35531;DHT22;21637;53.352;-6.356;2023-03-14T09:55:18;5.80;99.90
35531;DHT22;21637;53.352;-6.356;2023-03-14T09:57:47;5.80;99.90
35531;DHT22;21637;53.352;-6.356;2023-03-14T10:00:19;5.80;99.90
35531;DHT22;21637;53.352;-6.356;2023-03-14T10:02:56;5.80;99.90
35531;DHT22;21637;53.352;-6.356;2023-03-14T10:05:24;5.80;99.90
35531;DHT22;21637;53.352;-6.356;2023-03-14T10:07:50;5.80;99.90
35531;DHT22;21637;53.352;-6.356;2023-03-14T10:10:22;5.80;99.90
35531;DHT22;21637;53.352;-6.356;2023-03-14T10:12:59;5.90;99.90
35531;DHT22;21637;53.352;-6.356;2023-03-14T10:15:32;6.10;99.90
35531;DHT22;21637;53.352;-6.356;2023-03-14T10:18:03;6.20;99.90
35531;DHT22;21637;53.352;-6.356;2023-03-14T10:20:37;6.40;99.90
35531;DHT22;21637;53.352;-6.356;2023-03-14T10:23:17;6.40;99.90
35531;DHT22;21637;53.352;-6.356;2023-03-14T10:28:34;6.60;99.90
35531;DHT22;21637;53.352;-6.356;2023-03-14T10:31:02;6.60;99.90
35531;DHT22;21637;53.352;-6.356;2023-03-14T10:33:30;6.60;99.90
35531;DHT22;21637;53.352;-6.356;2023-03-14T10:38:37;6.80;99.90
35531;DHT22;21637;53.352;-6.356;2023-03-14T10:41:19;7.00;99.90
35531;DHT22;21637;53.352;-6.356;2023-03-14T10:43:54;7.00;99.90
35531;DHT22;21637;53.352;-6.356;2023-03-14T10:46:24;7.10;99.90
35531;DHT22;21637;53.352;-6.356;2023-03-14T10:48:52;7.00;99.90
35531;DHT22;21637;53.352;-6.356;2023-03-14T10:51:26;7.10;99.90
35531;DHT22;21637;53.352;-6.356;2023-03-14T10:56:24;7.20;99.90
35531;DHT22;21637;53.352;-6.356;2023-03-14T10:58:59;7.30;99.90
35531;DHT22;21637;53.352;-6.356;2023-03-14T11:04:49;7.40;99.90
35531;DHT22;21637;53.352;-6.356;2023-03-14T11:07:44;7.50;99.90
35531;DHT22;21637;53.352;-6.356;2023-03-14T11:10:38;7.60;99.90
35531;DHT22;21637;53.352;-6.356;2023-03-14T11:13:35;7.60;99.90
35531;DHT22;21637;53.352;-6.356;2023-03-14T11:18:57;7.80;99.90
35531;DHT22;21637;53.352;-6.356;2023-03-14T11:27:00;8.00;99.90
35531;DHT22;21637;53.352;-6.356;2023-03-14T11:32:40;8.30;99.90
35531;DHT22;21637;53.352;-6.356;2023-03-14T11:35:19;8.30;99.90
35531;DHT22;21637;53.352;-6.356;2023-03-14T11:37:54;8.30;99.90
35531;DHT22;21637;53.352;-6.356;2023-03-14T11:40:23;8.30;99.90
35531;DHT22;21637;53.352;-6.356;2023-03-14T11:43:17;8.30;99.90
35531;DHT22;21637;53.352;-6.356;2023-03-14T11:45:47;8.30;99.90
35531;DHT22;21637;53.352;-6.356;2023-03-14T11:48:29;8.30;99.90
35531;DHT22;21637;53.352;-6.356;2023-03-14T11:51:02;8.30;99.90
35531;DHT22;21637;53.352;-6.356;2023-03-14T11:53:47;8.20;99.90
35531;DHT22;21637;53.352;-6.356;2023-03-14T11:56:21;8.30;99.90
35531;DHT22;21637;53.352;-6.356;2023-03-14T11:58:58;8.40;99.90
35531;DHT22;21637;53.352;-6.356;2023-03-14T12:01:36;8.30;99.90
35531;DHT22;21637;53.352;-6.356;2023-03-14T12:06:50;8.30;99.90
35531;DHT22;21637;53.352;-6.356;2023-03-14T12:09:18;8.30;99.90
35531;DHT22;21637;53.352;-6.356;2023-03-14T12:11:55;8.30;99.90
35531;DHT22;21637;53.352;-6.356;2023-03-14T12:14:32;8.30;99.90
35531;DHT22;21637;53.352;-6.356;2023-03-14T12:17:07;8.20;99.90
35531;DHT22;21637;53.352;-6.356;2023-03-14T12:19:42;8.20;99.90
35531;DHT22;21637;53.352;-6.356;2023-03-14T12:24:50;8.00;99.90
35531;DHT22;21637;53.352;-6.356;2023-03-14T12:27:40;7.80;99.90
35531;DHT22;21637;53.352;-6.356;2023-03-14T12:35:39;7.20;99.90
35531;DHT22;21637;53.352;-6.356;2023-03-14T12:41:21;7.30;99.90
35531;DHT22;21637;53.352;-6.356;2023-03-14T12:43:48;7.30;99.90
35531;DHT22;21637;53.352;-6.356;2023-03-14T12:48:54;7.40;99.90
35531;DHT22;21637;53.352;-6.356;2023-03-14T12:51:28;7.40;99.90
35531;DHT22;21637;53.352;-6.356;2023-03-14T12:54:21;7.40;99.90
35531;DHT22;21637;53.352;-6.356;2023-03-14T12:59:51;7.40;99.90
35531;DHT22;21637;53.352;-6.356;2023-03-14T13:02:23;7.40;99.90
35531;DHT22;21637;53.352;-6.356;2023-03-14T13:10:29;7.40;99.90
35531;DHT22;21637;53.352;-6.356;2023-03-14T13:13:01;7.30;99.90
35531;DHT22;21637;53.352;-6.356;2023-03-14T13:18:13;7.20;99.90
35531;DHT22;21637;53.352;-6.356;2023-03-14T13:21:07;7.10;99.90
35531;DHT22;21637;53.352;-6.356;2023-03-14T13:23:37;7.10;99.90
35531;DHT22;21637;53.352;-6.356;2023-03-14T13:26:15;7.10;99.90
35531;DHT22;21637;53.352;-6.356;2023-03-14T13:28:41;7.10;99.90
35531;DHT22;21637;53.352;-6.356;2023-03-14T13:31:22;7.20;99.90
35531;DHT22;21637;53.352;-6.356;2023-03-14T13:33:57;7.00;99.90
35531;DHT22;21637;53.352;-6.356;2023-03-14T13:36:24;7.00;99.90
35531;DHT22;21637;53.352;-6.356;2023-03-14T13:38:56;6.90;99.90
35531;DHT22;21637;53.352;-6.356;2023-03-14T13:41:23;6.90;99.90
35531;DHT22;21637;53.352;-6.356;2023-03-14T13:43:49;7.00;99.90
35531;DHT22;21637;53.352;-6.356;2023-03-14T13:46:20;7.10;99.90
35531;DHT22;21637;53.352;-6.356;2023-03-14T13:49:14;7.10;99.90
35531;DHT22;21637;53.352;-6.356;2023-03-14T13:51:44;7.10;99.90
35531;DHT22;21637;53.352;-6.356;2023-03-14T13:54:15;7.10;99.90
35531;DHT22;21637;53.352;-6.356;2023-03-14T13:56:41;7.10;99.90
35531;DHT22;21637;53.352;-6.356;2023-03-14T13:59:24;7.10;99.90
35531;DHT22;21637;53.352;-6.356;2023-03-14T14:01:50;7.10;99.90
35531;DHT22;21637;53.352;-6.356;2023-03-14T14:04:19;7.20;99.90
35531;DHT22;21637;53.352;-6.356;2023-03-14T14:06:57;7.50;99.90
35531;DHT22;21637;53.352;-6.356;2023-03-14T14:12:02;8.00;99.90
35531;DHT22;21637;53.352;-6.356;2023-03-14T14:14:34;8.20;99.90
35531;DHT22;21637;53.352;-6.356;2023-03-14T14:17:05;8.30;99.90
35531;DHT22;21637;53.352;-6.356;2023-03-14T14:19:34;8.20;99.90
35531;DHT22;21637;53.352;-6.356;2023-03-14T14:22:01;8.10;99.90
35531;DHT22;21637;53.352;-6.356;2023-03-14T14:24:32;8.00;99.90
35531;DHT22;21637;53.352;-6.356;2023-03-14T14:27:19;8.00;99.90
35531;DHT22;21637;53.352;-6.356;2023-03-14T14:30:02;7.90;99.90
35531;DHT22;21637;53.352;-6.356;2023-03-14T14:32:37;8.10;99.90
35531;DHT22;21637;53.352;-6.356;2023-03-14T14:35:04;8.20;99.90
35531;DHT22;21637;53.352;-6.356;2023-03-14T14:37:40;8.40;99.90
35531;DHT22;21637;53.352;-6.356;2023-03-14T14:42:35;8.50;99.90
35531;DHT22;21637;53.352;-6.356;2023-03-14T14:45:05;8.40;99.90
35531;DHT22;21637;53.352;-6.356;2023-03-14T14:47:32;8.40;99.90
35531;DHT22;21637;53.352;-6.356;2023-03-14T14:50:04;8.20;99.90
35531;DHT22;21637;53.352;-6.356;2023-03-14T14:52:36;8.00;99.90
35531;DHT22;21637;53.352;-6.356;2023-03-14T14:55:03;7.30;99.90
35531;DHT22;21637;53.352;-6.356;2023-03-14T14:57:33;6.90;99.90
35531;DHT22;21637;53.352;-6.356;2023-03-14T15:00:07;6.70;99.90
35531;DHT22;21637;53.352;-6.356;2023-03-14T15:02:44;6.60;99.90
35531;DHT22;21637;53.352;-6.356;2023-03-14T15:05:23;6.40;99.90
35531;DHT22;21637;53.352;-6.356;2023-03-14T15:07:49;6.20;99.90
35531;DHT22;21637;53.352;-6.356;2023-03-14T15:10:20;5.90;99.90
35531;DHT22;21637;53.352;-6.356;2023-03-14T15:12:47;5.70;99.90
35531;DHT22;21637;53.352;-6.356;2023-03-14T15:15:13;5.60;99.90
35531;DHT22;21637;53.352;-6.356;2023-03-14T15:17:39;5.40;99.90
35531;DHT22;21637;53.352;-6.356;2023-03-14T15:20:06;5.40;99.90
35531;DHT22;21637;53.352;-6.356;2023-03-14T15:22:32;5.40;99.90
35531;DHT22;21637;53.352;-6.356;2023-03-14T15:24:58;5.30;99.90
35531;DHT22;21637;53.352;-6.356;2023-03-14T15:27:24;5.30;99.90
35531;DHT22;21637;53.352;-6.356;2023-03-14T15:29:50;5.30;99.90
35531;DHT22;21637;53.352;-6.356;2023-03-14T15:32:17;5.20;99.90
35531;DHT22;21637;53.352;-6.356;2023-03-14T15:34:43;5.30;99.90
35531;DHT22;21637;53.352;-6.356;2023-03-14T15:37:14;5.30;99.90
35531;DHT22;21637;53.352;-6.356;2023-03-14T15:39:41;5.30;99.90
35531;DHT22;21637;53.352;-6.356;2023-03-14T15:42:07;5.20;99.90
35531;DHT22;21637;53.352;-6.356;2023-03-14T15:44:34;5.30;99.90
35531;DHT22;21637;53.352;-6.356;2023-03-14T15:46:59;5.40;99.90
35531;DHT22;21637;53.352;-6.356;2023-03-14T15:49:25;5.40;99.90
35531;DHT22;21637;53.352;-6.356;2023-03-14T15:51:51;5.50;99.90
35531;DHT22;21637;53.352;-6.356;2023-03-14T15:54:17;5.80;99.90
35531;DHT22;21637;53.352;-6.356;2023-03-14T15:56:43;5.90;99.90
35531;DHT22;21637;53.352;-6.356;2023-03-14T15:59:08;6.20;99.90
35531;DHT22;21637;53.352;-6.356;2023-03-14T16:01:34;6.40;99.90
35531;DHT22;21637;53.352;-6.356;2023-03-14T16:04:03;6.70;99.90
35531;DHT22;21637;53.352;-6.356;2023-03-14T16:06:29;6.90;99.90
35531;DHT22;21637;53.352;-6.356;2023-03-14T16:08:56;7.00;99.90
35531;DHT22;21637;53.352;-6.356;2023-03-14T16:11:22;7.00;99.90
35531;DHT22;21637;53.352;-6.356;2023-03-14T16:13:48;6.90;99.90
35531;DHT22;21637;53.352;-6.356;2023-03-14T16:16:14;6.80;99.90
35531;DHT22;21637;53.352;-6.356;2023-03-14T16:18:40;6.70;99.90
35531;DHT22;21637;53.352;-6.356;2023-03-14T16:21:10;6.50;99.90
35531;DHT22;21637;53.352;-6.356;2023-03-14T16:23:36;6.40;99.90
35531;DHT22;21637;53.352;-6.356;2023-03-14T16:26:07;6.20;99.90
35531;DHT22;21637;53.352;-6.356;2023-03-14T16:28:33;6.10;99.90
35531;DHT22;21637;53.352;-6.356;2023-03-14T16:31:08;6.10;99.90
35531;DHT22;21637;53.352;-6.356;2023-03-14T16:33:35;6.00;99.90
35531;DHT22;21637;53.352;-6.356;2023-03-14T16:36:03;6.00;99.90
35531;DHT22;21637;53.352;-6.356;2023-03-14T16:38:38;5.90;99.90
35531;DHT22;21637;53.352;-6.356;2023-03-14T16:41:13;5.90;99.90
35531;DHT22;21637;53.352;-6.356;2023-03-14T16:43:40;5.90;99.90
35531;DHT22;21637;53.352;-6.356;2023-03-14T16:46:09;5.90;99.90
35531;DHT22;21637;53.352;-6.356;2023-03-14T16:48:35;5.90;99.90
35531;DHT22;21637;53.352;-6.356;2023-03-14T16:51:02;5.90;99.90
35531;DHT22;21637;53.352;-6.356;2023-03-14T16:53:28;5.90;99.90